createdAt,value
2023-05-04T00:02:10.179Z,12.00
2023-05-04T00:04:37.081Z,12.00
2023-05-04T00:07:03.802Z,12.00
2023-05-04T00:09:31.634Z,12.00
2023-05-04T00:11:58.431Z,11.90
2023-05-04T00:14:25.119Z,12.00
2023-05-04T00:16:52.587Z,11.90
2023-05-04T00:19:19.486Z,11.90
2023-05-04T00:21:46.404Z,11.80
2023-05-04T00:24:13.082Z,11.80
2023-05-04T00:26:39.947Z,11.80
2023-05-04T00:29:06.656Z,11.80
2023-05-04T00:31:33.402Z,11.80
2023-05-04T00:34:00.106Z,11.70
2023-05-04T00:36:26.760Z,11.70
2023-05-04T00:38:54.942Z,11.70
2023-05-04T00:41:22.525Z,11.70
2023-05-04T00:43:49.686Z,11.70
2023-05-04T00:46:16.906Z,11.70
2023-05-04T00:48:46.581Z,11.60
2023-05-04T00:51:14.182Z,11.60
2023-05-04T00:53:41.259Z,11.60
2023-05-04T00:56:08.638Z,11.60
2023-05-04T00:58:35.764Z,11.60
2023-05-04T01:01:03.891Z,11.60
2023-05-04T01:03:32.204Z,11.50
2023-05-04T01:06:17.517Z,11.50
2023-05-04T01:08:57.791Z,11.50
2023-05-04T01:11:35.852Z,11.50
2023-05-04T01:14:02.852Z,11.50
2023-05-04T01:16:29.796Z,11.40
2023-05-04T01:18:56.528Z,11.40
2023-05-04T01:21:23.259Z,11.40
2023-05-04T01:23:50.445Z,11.40
2023-05-04T01:26:25.357Z,11.30
2023-05-04T01:29:08.821Z,11.40
2023-05-04T01:31:37.807Z,11.30
2023-05-04T01:34:06.483Z,11.30
2023-05-04T01:36:33.946Z,11.30
2023-05-04T01:39:00.678Z,11.20
2023-05-04T01:41:27.382Z,11.20
2023-05-04T01:43:56.712Z,11.20
2023-05-04T01:46:26.285Z,11.20
2023-05-04T01:48:53.120Z,11.10
2023-05-04T01:51:22.420Z,11.10
2023-05-04T01:53:50.558Z,11.10
2023-05-04T01:56:17.460Z,11.00
2023-05-04T01:58:44.792Z,11.00
2023-05-04T02:01:11.745Z,11.00
2023-05-04T02:03:38.507Z,11.00
2023-05-04T02:06:05.379Z,11.00
2023-05-04T02:08:32.185Z,11.00
2023-05-04T02:10:58.951Z,10.90
2023-05-04T02:13:25.691Z,10.90
2023-05-04T02:15:52.442Z,10.90
2023-05-04T02:18:19.240Z,10.90
2023-05-04T02:20:46.141Z,10.90
2023-05-04T02:23:14.390Z,10.80
2023-05-04T02:25:43.817Z,10.90
2023-05-04T02:28:10.603Z,10.80
2023-05-04T02:30:37.457Z,10.80
2023-05-04T02:33:04.370Z,10.80
2023-05-04T02:35:31.218Z,10.70
2023-05-04T02:37:57.995Z,10.80
2023-05-04T02:40:24.710Z,10.70
2023-05-04T02:42:51.494Z,10.70
2023-05-04T02:45:18.295Z,10.70
2023-05-04T02:47:45.008Z,10.70
2023-05-04T02:50:11.794Z,10.60
2023-05-04T02:52:38.541Z,10.60
2023-05-04T02:55:06.662Z,10.60
2023-05-04T02:57:33.498Z,10.60
2023-05-04T03:00:00.126Z,10.60
2023-05-04T03:02:26.879Z,10.50
2023-05-04T03:04:53.784Z,10.50
2023-05-04T03:07:20.458Z,10.50
2023-05-04T03:09:48.044Z,10.50
2023-05-04T03:12:14.942Z,10.50
2023-05-04T03:14:42.563Z,10.50
2023-05-04T03:17:09.299Z,10.40
2023-05-04T03:19:36.843Z,10.40
2023-05-04T03:22:04.602Z,10.40
2023-05-04T03:24:31.477Z,10.40
2023-05-04T03:26:58.608Z,10.30
2023-05-04T03:29:26.319Z,10.30
2023-05-04T03:31:54.741Z,10.30
2023-05-04T03:34:21.813Z,10.30
2023-05-04T03:36:52.613Z,10.30
2023-05-04T03:39:19.419Z,10.20
2023-05-04T03:41:46.530Z,10.20
2023-05-04T03:44:13.352Z,10.20
2023-05-04T03:46:40.188Z,10.20
2023-05-04T03:49:07.115Z,10.20
2023-05-04T03:51:33.768Z,10.20
2023-05-04T03:54:01.733Z,10.10
2023-05-04T03:56:28.399Z,10.10
2023-05-04T03:58:57.150Z,10.10
2023-05-04T04:01:27.808Z,10.10
2023-05-04T04:03:54.614Z,10.10
2023-05-04T04:06:22.395Z,10.10
2023-05-04T04:08:49.094Z,10.10
2023-05-04T04:11:15.839Z,10.00
2023-05-04T04:13:42.472Z,10.00
2023-05-04T04:16:09.195Z,10.00
2023-05-04T04:18:35.855Z,10.00
2023-05-04T04:21:03.411Z,10.00
2023-05-04T04:23:30.095Z,10.00
2023-05-04T04:25:56.712Z,10.00
2023-05-04T04:28:23.425Z,10.00
2023-05-04T04:30:50.144Z,10.00
2023-05-04T04:33:16.983Z,10.00
2023-05-04T04:35:44.107Z,10.10
2023-05-04T04:38:10.885Z,10.00
2023-05-04T04:40:37.571Z,10.00
2023-05-04T04:43:04.602Z,10.10
2023-05-04T04:45:32.534Z,10.10
2023-05-04T04:48:00.971Z,10.10
2023-05-04T04:50:28.998Z,10.10
2023-05-04T04:52:56.243Z,10.10
2023-05-04T04:55:25.769Z,10.20
2023-05-04T04:57:52.958Z,10.20
2023-05-04T05:00:19.790Z,10.20
2023-05-04T05:02:46.616Z,10.20
2023-05-04T05:05:13.729Z,10.30
2023-05-04T05:07:40.435Z,10.30
2023-05-04T05:10:08.556Z,10.30
2023-05-04T05:12:35.629Z,10.30
2023-05-04T05:15:04.374Z,10.30
2023-05-04T05:17:31.403Z,10.40
2023-05-04T05:19:58.134Z,10.40
2023-05-04T05:22:24.994Z,10.40
2023-05-04T05:24:51.840Z,10.40
2023-05-04T05:27:18.503Z,10.40
2023-05-04T05:29:45.537Z,10.40
2023-05-04T05:32:12.215Z,10.50
2023-05-04T05:34:39.023Z,10.50
2023-05-04T05:37:05.788Z,10.50
2023-05-04T05:39:32.514Z,10.50
2023-05-04T05:41:59.328Z,10.50
2023-05-04T05:44:25.999Z,10.50
2023-05-04T05:46:52.637Z,10.60
2023-05-04T05:49:19.454Z,10.60
2023-05-04T05:51:46.132Z,10.60
2023-05-04T05:54:12.819Z,10.70
2023-05-04T05:56:39.540Z,10.70
2023-05-04T05:59:06.379Z,10.80
2023-05-04T06:01:33.306Z,10.80
2023-05-04T06:04:00.167Z,10.90
2023-05-04T06:06:27.168Z,11.00
2023-05-04T06:08:53.843Z,11.00
2023-05-04T06:11:21.427Z,11.10
2023-05-04T06:13:48.190Z,11.20
2023-05-04T06:16:14.928Z,11.20
2023-05-04T06:18:41.686Z,11.30
2023-05-04T06:21:08.748Z,11.40
2023-05-04T06:23:35.447Z,11.50
2023-05-04T06:26:02.693Z,11.60
2023-05-04T06:28:29.292Z,11.70
2023-05-04T06:30:56.650Z,11.80
2023-05-04T06:33:23.339Z,12.00
2023-05-04T06:35:50.857Z,12.10
2023-05-04T06:38:17.549Z,12.30
2023-05-04T06:40:44.202Z,12.50
2023-05-04T06:43:10.968Z,12.60
2023-05-04T06:45:39.383Z,12.80
2023-05-04T06:48:07.719Z,13.10
2023-05-04T06:50:35.808Z,13.30
2023-05-04T06:53:04.359Z,13.50
2023-05-04T06:55:31.762Z,13.60
2023-05-04T06:57:58.521Z,13.80
2023-05-04T07:00:25.482Z,14.00
2023-05-04T07:02:53.393Z,14.10
2023-05-04T07:05:23.273Z,14.30
2023-05-04T07:07:51.396Z,14.40
2023-05-04T07:10:19.359Z,14.60
2023-05-04T07:12:46.664Z,14.70
2023-05-04T07:15:13.540Z,14.90
2023-05-04T07:17:41.048Z,15.00
2023-05-04T07:20:08.396Z,15.20
2023-05-04T07:22:35.187Z,15.30
2023-05-04T07:25:01.906Z,15.40
2023-05-04T07:27:28.565Z,15.50
2023-05-04T07:29:55.684Z,15.60
2023-05-04T07:32:22.496Z,15.80
2023-05-04T07:34:49.355Z,15.90
2023-05-04T07:37:16.095Z,16.00
2023-05-04T07:39:42.880Z,16.10
2023-05-04T07:42:11.549Z,16.30
2023-05-04T07:44:38.374Z,16.40
2023-05-04T07:47:05.361Z,16.60
2023-05-04T07:49:32.293Z,16.60
2023-05-04T07:51:59.387Z,16.70
2023-05-04T07:54:26.230Z,16.90
2023-05-04T07:56:52.904Z,17.00
2023-05-04T07:59:19.798Z,17.20
2023-05-04T08:01:47.220Z,17.30
2023-05-04T08:04:14.299Z,17.50
2023-05-04T08:06:41.643Z,17.70
2023-05-04T08:09:09.076Z,17.80
2023-05-04T08:11:35.870Z,18.00
2023-05-04T08:14:02.671Z,18.20
2023-05-04T08:16:29.429Z,18.40
2023-05-04T08:19:01.119Z,18.60
2023-05-04T08:21:27.879Z,18.70
2023-05-04T08:23:54.559Z,19.00
2023-05-04T08:26:21.253Z,19.20
2023-05-04T08:28:48.308Z,19.40
2023-05-04T08:31:15.787Z,19.70
2023-05-04T08:33:42.511Z,19.90
2023-05-04T08:36:09.492Z,20.20
2023-05-04T08:38:36.401Z,20.50
2023-05-04T08:41:06.686Z,20.80
2023-05-04T08:43:37.142Z,21.00
2023-05-04T08:46:04.681Z,21.20
2023-05-04T08:48:34.749Z,21.40
2023-05-04T08:51:03.471Z,21.50
2023-05-04T08:53:31.510Z,21.60
2023-05-04T08:56:03.915Z,21.70
2023-05-04T08:58:32.221Z,21.90
2023-05-04T09:01:01.132Z,22.00
2023-05-04T09:03:29.745Z,22.10
2023-05-04T09:05:58.009Z,22.20
2023-05-04T09:08:24.768Z,22.30
2023-05-04T09:10:51.735Z,22.40
2023-05-04T09:13:18.482Z,22.60
2023-05-04T09:15:58.738Z,22.70
2023-05-04T09:18:36.933Z,22.90
2023-05-04T09:21:03.739Z,23.10
2023-05-04T09:23:30.642Z,23.20
2023-05-04T09:25:57.355Z,23.40
2023-05-04T09:28:39.005Z,23.60
2023-05-04T09:31:07.727Z,23.80
2023-05-04T09:33:35.542Z,24.10
2023-05-04T09:36:21.914Z,24.20
2023-05-04T09:38:48.950Z,24.40
2023-05-04T09:41:15.981Z,24.60
2023-05-04T09:43:44.776Z,24.80
2023-05-04T09:46:18.414Z,25.00
2023-05-04T09:48:58.626Z,25.20
2023-05-04T09:51:29.498Z,25.40
2023-05-04T09:54:01.385Z,25.50
2023-05-04T09:56:38.546Z,25.60
2023-05-04T09:59:05.916Z,25.80
2023-05-04T10:01:32.886Z,26.00
2023-05-04T10:03:59.571Z,26.10
2023-05-04T10:06:30.223Z,26.30
2023-05-04T10:08:59.710Z,26.40
2023-05-04T10:11:26.620Z,26.50
2023-05-04T10:13:56.923Z,26.50
2023-05-04T10:16:37.102Z,26.60
2023-05-04T10:19:22.712Z,26.60
2023-05-04T10:21:55.685Z,26.60
2023-05-04T10:24:54.675Z,26.70
2023-05-04T10:27:56.742Z,26.70
2023-05-04T10:30:23.690Z,26.70
2023-05-04T10:32:57.411Z,26.70
2023-05-04T10:35:24.818Z,26.70
2023-05-04T10:37:55.630Z,26.70
2023-05-04T10:40:39.083Z,26.60
2023-05-04T10:43:07.308Z,26.50
2023-05-04T10:45:43.825Z,26.50
2023-05-04T10:48:10.738Z,26.20
2023-05-04T10:50:49.164Z,26.10
2023-05-04T10:53:17.679Z,26.00
2023-05-04T10:55:48.601Z,25.90
2023-05-04T10:58:19.013Z,25.80
2023-05-04T11:00:47.305Z,25.70
2023-05-04T11:03:15.180Z,25.60
2023-05-04T11:05:47.100Z,25.60
2023-05-04T11:08:17.670Z,25.50
2023-05-04T11:10:48.786Z,25.40
2023-05-04T11:13:18.513Z,25.30
2023-05-04T11:15:49.634Z,25.20
2023-05-04T11:18:30.915Z,25.20
2023-05-04T11:20:58.596Z,25.10
2023-05-04T11:23:25.870Z,25.00
2023-05-04T11:25:53.346Z,24.90
2023-05-04T11:28:20.251Z,24.90
2023-05-04T11:30:47.657Z,24.80
2023-05-04T11:33:15.662Z,24.70
2023-05-04T11:35:44.028Z,24.70
2023-05-04T11:38:13.110Z,24.60
2023-05-04T11:40:47.067Z,24.60
2023-05-04T11:43:14.389Z,24.50
2023-05-04T11:45:42.493Z,24.50
2023-05-04T11:48:09.725Z,24.50
2023-05-04T11:50:36.676Z,24.40
2023-05-04T11:53:14.035Z,24.40
2023-05-04T11:55:41.780Z,24.40
2023-05-04T11:58:10.248Z,24.40
2023-05-04T12:00:41.503Z,24.40
2023-05-04T12:03:15.605Z,24.30
2023-05-04T12:05:50.794Z,24.30
2023-05-04T12:08:32.918Z,24.30
2023-05-04T12:11:10.210Z,24.30
2023-05-04T12:13:37.483Z,24.30
2023-05-04T12:16:15.370Z,24.20
2023-05-04T12:18:42.789Z,24.20
2023-05-04T12:21:13.644Z,24.20
2023-05-04T12:23:41.288Z,24.10
2023-05-04T12:26:09.280Z,24.10
2023-05-04T12:28:36.854Z,24.10
2023-05-04T12:31:07.211Z,24.10
2023-05-04T12:33:34.302Z,24.10
2023-05-04T12:36:02.156Z,24.10
2023-05-04T12:38:29.499Z,24.00
2023-05-04T12:40:58.910Z,24.00
2023-05-04T12:43:25.676Z,24.00
2023-05-04T12:45:53.174Z,24.00
2023-05-04T12:48:23.395Z,24.00
2023-05-04T12:50:51.450Z,24.00
2023-05-04T12:53:18.936Z,23.90
2023-05-04T12:55:45.735Z,23.90
2023-05-04T12:58:12.728Z,23.90
2023-05-04T13:00:40.258Z,23.90
2023-05-04T13:03:07.654Z,23.90
2023-05-04T13:05:34.489Z,23.90
2023-05-04T13:08:01.522Z,23.80
2023-05-04T13:10:28.366Z,23.80
2023-05-04T13:12:55.073Z,23.80
2023-05-04T13:15:21.961Z,23.80
2023-05-04T13:17:48.848Z,23.80
2023-05-04T13:20:16.118Z,23.80
2023-05-04T13:22:46.431Z,23.80
2023-05-04T13:25:13.404Z,23.80
2023-05-04T13:27:40.207Z,23.80
2023-05-04T13:30:08.333Z,23.80
2023-05-04T13:32:36.292Z,23.80
2023-05-04T13:35:04.843Z,23.90
2023-05-04T13:37:31.675Z,23.80
2023-05-04T13:39:59.430Z,23.80
2023-05-04T13:42:26.562Z,23.80
2023-05-04T13:44:53.279Z,23.90
2023-05-04T13:47:20.043Z,23.90
2023-05-04T13:49:46.919Z,23.90
2023-05-04T13:52:13.934Z,23.90
2023-05-04T13:54:41.256Z,23.90
2023-05-04T13:57:07.931Z,23.90
2023-05-04T13:59:34.713Z,23.90
2023-05-04T14:02:01.632Z,23.90
2023-05-04T14:04:28.959Z,23.90
2023-05-04T14:06:56.900Z,23.90
2023-05-04T14:09:23.919Z,23.90
2023-05-04T14:11:50.720Z,24.00
2023-05-04T14:14:17.537Z,24.00
2023-05-04T14:16:44.297Z,24.00
2023-05-04T14:19:11.036Z,24.00
2023-05-04T14:21:37.747Z,24.00
2023-05-04T14:24:04.610Z,24.00
2023-05-04T14:26:32.792Z,24.00
2023-05-04T14:28:59.756Z,24.00
2023-05-04T14:31:26.525Z,24.00
2023-05-04T14:33:54.699Z,24.10
2023-05-04T14:36:22.764Z,24.10
2023-05-04T14:38:49.442Z,24.10
2023-05-04T14:41:16.167Z,24.20
2023-05-04T14:43:42.842Z,24.20
2023-05-04T14:46:09.800Z,24.20
2023-05-04T14:48:36.914Z,24.20
2023-05-04T14:51:03.774Z,24.20
2023-05-04T14:53:35.735Z,24.20
2023-05-04T14:56:03.715Z,24.20
2023-05-04T14:58:30.408Z,24.20
2023-05-04T15:00:57.103Z,24.30
2023-05-04T15:03:24.198Z,24.30
2023-05-04T15:05:51.011Z,24.30
2023-05-04T15:08:17.697Z,24.30
2023-05-04T15:10:44.389Z,24.30
2023-05-04T15:13:15.333Z,24.30
2023-05-04T15:15:42.263Z,24.30
2023-05-04T15:18:09.249Z,24.30
2023-05-04T15:20:38.928Z,24.30
2023-05-04T15:23:10.570Z,24.40
2023-05-04T15:25:41.114Z,24.40
2023-05-04T15:28:10.527Z,24.40
2023-05-04T15:30:38.197Z,24.40
2023-05-04T15:33:05.575Z,24.40
2023-05-04T15:35:33.432Z,24.40
2023-05-04T15:38:01.142Z,24.40
2023-05-04T15:40:28.243Z,24.40
2023-05-04T15:42:55.110Z,24.50
2023-05-04T15:45:22.196Z,24.50
2023-05-04T15:47:49.191Z,24.50
2023-05-04T15:50:16.095Z,24.50
2023-05-04T15:52:43.048Z,24.50
2023-05-04T15:55:24.676Z,24.50
2023-05-04T15:57:53.744Z,24.50
2023-05-04T16:00:21.088Z,24.50
2023-05-04T16:02:48.017Z,24.50
2023-05-04T16:05:14.828Z,24.40
2023-05-04T16:07:41.608Z,24.40
2023-05-04T16:10:09.445Z,24.40
2023-05-04T16:12:36.515Z,24.40
2023-05-04T16:15:03.353Z,24.40
2023-05-04T16:17:34.875Z,24.40
2023-05-04T16:20:03.145Z,24.40
2023-05-04T16:22:30.666Z,24.30
2023-05-04T16:24:57.631Z,24.30
2023-05-04T16:27:26.657Z,24.30
2023-05-04T16:29:53.648Z,24.30
2023-05-04T16:32:21.002Z,24.40
2023-05-04T16:34:47.879Z,24.30
2023-05-04T16:37:15.923Z,24.20
2023-05-04T16:39:42.610Z,24.20
2023-05-04T16:42:09.293Z,24.20
2023-05-04T16:44:36.001Z,24.20
2023-05-04T16:47:02.721Z,24.10
2023-05-04T16:49:29.766Z,24.10
2023-05-04T16:51:57.137Z,24.10
2023-05-04T16:54:24.080Z,24.10
2023-05-04T16:56:50.984Z,24.10
2023-05-04T16:59:17.653Z,24.10
2023-05-04T17:01:44.783Z,24.00
2023-05-04T17:04:11.594Z,24.00
2023-05-04T17:06:38.359Z,24.00
2023-05-04T17:09:05.297Z,23.90
2023-05-04T17:11:32.173Z,23.90
2023-05-04T17:13:59.671Z,23.90
2023-05-04T17:16:26.414Z,23.90
2023-05-04T17:18:53.072Z,23.90
2023-05-04T17:21:19.868Z,23.80
2023-05-04T17:23:46.633Z,23.80
2023-05-04T17:26:13.671Z,23.80
2023-05-04T17:28:40.273Z,23.80
2023-05-04T17:31:11.071Z,23.80
2023-05-04T17:33:37.935Z,23.70
2023-05-04T17:36:05.976Z,23.80
2023-05-04T17:38:32.905Z,23.70
2023-05-04T17:40:59.627Z,23.60
2023-05-04T17:43:26.626Z,23.60
2023-05-04T17:45:55.529Z,23.60
2023-05-04T17:48:23.857Z,23.60
2023-05-04T17:50:51.037Z,23.50
2023-05-04T17:53:18.174Z,23.50
2023-05-04T17:55:44.915Z,23.50
2023-05-04T17:58:11.574Z,23.50
2023-05-04T18:00:38.495Z,23.40
2023-05-04T18:03:05.326Z,23.40
2023-05-04T18:05:32.105Z,23.40
2023-05-04T18:07:59.062Z,23.30
2023-05-04T18:10:25.948Z,23.30
2023-05-04T18:12:52.734Z,23.20
2023-05-04T18:15:19.770Z,23.20
2023-05-04T18:17:46.509Z,23.10
2023-05-04T18:20:13.451Z,23.10
2023-05-04T18:22:40.889Z,23.10
2023-05-04T18:25:08.215Z,23.00
2023-05-04T18:27:35.684Z,22.90
2023-05-04T18:30:04.249Z,22.90
2023-05-04T18:32:31.280Z,22.80
2023-05-04T18:34:58.177Z,22.80
2023-05-04T18:37:25.370Z,22.80
2023-05-04T18:39:52.288Z,22.70
2023-05-04T18:42:18.977Z,22.70
2023-05-04T18:44:45.843Z,22.60
2023-05-04T18:47:12.503Z,22.60
2023-05-04T18:49:39.191Z,22.50
2023-05-04T18:52:06.069Z,22.50
2023-05-04T18:54:33.001Z,22.40
2023-05-04T18:56:59.730Z,22.40
2023-05-04T18:59:26.633Z,22.30
2023-05-04T19:01:55.575Z,22.30
2023-05-04T19:04:22.254Z,22.20
2023-05-04T19:06:51.647Z,22.10
2023-05-04T19:09:18.742Z,22.10
2023-05-04T19:11:46.736Z,22.00
2023-05-04T19:14:13.690Z,22.00
2023-05-04T19:16:40.581Z,21.90
2023-05-04T19:19:07.445Z,21.80
2023-05-04T19:21:34.199Z,21.80
2023-05-04T19:24:00.933Z,21.80
2023-05-04T19:26:27.603Z,21.70
2023-05-04T19:28:54.292Z,21.60
2023-05-04T19:31:20.985Z,21.60
2023-05-04T19:33:49.430Z,21.50
2023-05-04T19:36:17.058Z,21.50
2023-05-04T19:38:43.995Z,21.40
2023-05-04T19:41:10.720Z,21.50
2023-05-04T19:43:38.657Z,21.30
2023-05-04T19:46:05.703Z,21.30
2023-05-04T19:48:32.858Z,21.20
2023-05-04T19:50:59.641Z,21.10
2023-05-04T19:53:26.684Z,21.20
2023-05-04T19:55:54.005Z,21.00
2023-05-04T19:58:21.934Z,21.00
2023-05-04T20:00:48.797Z,20.90
2023-05-04T20:03:16.888Z,20.90
2023-05-04T20:05:43.634Z,20.80
2023-05-04T20:08:10.740Z,20.80
2023-05-04T20:10:37.487Z,20.70
2023-05-04T20:13:05.427Z,20.70
2023-05-04T20:15:32.256Z,20.70
2023-05-04T20:17:59.262Z,20.60
2023-05-04T20:20:26.666Z,20.50
2023-05-04T20:22:53.528Z,20.50
2023-05-04T20:25:20.264Z,20.50
2023-05-04T20:27:48.459Z,20.40
2023-05-04T20:30:15.371Z,20.40
2023-05-04T20:32:42.588Z,20.30
2023-05-04T20:35:09.707Z,20.30
2023-05-04T20:37:36.478Z,20.20
2023-05-04T20:40:03.671Z,20.20
2023-05-04T20:42:30.546Z,20.10
2023-05-04T20:44:57.327Z,20.10
2023-05-04T20:47:24.017Z,20.00
2023-05-04T20:49:50.716Z,20.00
2023-05-04T20:52:17.412Z,20.00
2023-05-04T20:54:44.114Z,19.90
2023-05-04T20:57:10.869Z,19.90
2023-05-04T20:59:37.494Z,19.80
2023-05-04T21:02:04.247Z,19.80
2023-05-04T21:04:30.943Z,19.70
2023-05-04T21:06:57.941Z,19.70
2023-05-04T21:09:24.631Z,19.70
2023-05-04T21:11:51.301Z,19.60
2023-05-04T21:14:17.981Z,19.60
2023-05-04T21:16:44.686Z,19.50
2023-05-04T21:19:11.303Z,19.50
2023-05-04T21:21:40.715Z,19.50
2023-05-04T21:24:14.183Z,19.40
2023-05-04T21:26:41.604Z,19.40
2023-05-04T21:29:14.977Z,19.30
2023-05-04T21:31:42.024Z,19.30
2023-05-04T21:34:08.907Z,19.30
2023-05-04T21:36:35.858Z,19.20
2023-05-04T21:39:02.494Z,19.20
2023-05-04T21:41:29.174Z,19.20
2023-05-04T21:43:56.235Z,19.10
2023-05-04T21:46:23.104Z,19.10
2023-05-04T21:48:51.645Z,19.10
2023-05-04T21:51:20.697Z,19.00
2023-05-04T21:53:47.930Z,19.00
2023-05-04T21:56:15.183Z,19.00
2023-05-04T21:58:42.090Z,18.90
2023-05-04T22:01:09.401Z,18.90
2023-05-04T22:03:36.263Z,18.90
2023-05-04T22:06:03.209Z,18.90
2023-05-04T22:08:30.249Z,18.80
2023-05-04T22:10:58.445Z,18.80
2023-05-04T22:13:25.732Z,18.80
2023-05-04T22:15:53.333Z,18.70
2023-05-04T22:18:20.550Z,18.70
2023-05-04T22:20:47.638Z,18.70
2023-05-04T22:23:14.793Z,18.60
2023-05-04T22:25:41.460Z,18.60
2023-05-04T22:28:08.241Z,18.60
2023-05-04T22:30:34.955Z,18.50
2023-05-04T22:33:01.877Z,18.50
2023-05-04T22:35:30.327Z,18.50
2023-05-04T22:37:57.082Z,18.50
2023-05-04T22:40:23.825Z,18.40
2023-05-04T22:42:50.565Z,18.40
2023-05-04T22:45:19.988Z,18.40
2023-05-04T22:47:47.063Z,18.30
2023-05-04T22:50:14.038Z,18.30
2023-05-04T22:52:41.123Z,18.30
2023-05-04T22:55:08.785Z,18.20
2023-05-04T22:57:35.798Z,18.20
2023-05-04T23:00:05.273Z,18.20
2023-05-04T23:02:32.244Z,18.20
2023-05-04T23:05:00.418Z,18.10
2023-05-04T23:07:27.173Z,18.10
2023-05-04T23:09:53.871Z,18.10
2023-05-04T23:12:20.552Z,18.10
2023-05-04T23:14:51.333Z,18.00
2023-05-04T23:17:18.320Z,18.00
2023-05-04T23:19:45.335Z,18.00
2023-05-04T23:22:12.017Z,18.00
2023-05-04T23:24:38.923Z,18.00
2023-05-04T23:27:05.714Z,18.00
2023-05-04T23:29:32.432Z,18.00
2023-05-04T23:31:59.200Z,17.90
2023-05-04T23:34:26.048Z,17.90
2023-05-04T23:36:55.645Z,17.90
2023-05-04T23:39:22.307Z,17.90
2023-05-04T23:41:49.066Z,17.90
2023-05-04T23:44:16.533Z,17.80
2023-05-04T23:46:43.417Z,17.80
2023-05-04T23:49:10.232Z,17.90
2023-05-04T23:51:36.879Z,17.80
2023-05-04T23:54:03.659Z,17.80
2023-05-04T23:56:31.451Z,17.80
2023-05-04T23:58:58.098Z,17.80
